sensor_id;sensor_type;location;lat;lon;timestamp;pressure;altitude;pressure_sealevel;temperature;humidity
34674;BME280;20879;55.668;37.858;2022-12-19T00:01:21;100830.47;;;-10.97;96.17
34674;BME280;20879;55.668;37.858;2022-12-19T00:03:53;100837.53;;;-10.93;95.87
34674;BME280;20879;55.668;37.858;2022-12-19T00:06:27;100827.19;;;-10.87;96.10
34674;BME280;20879;55.668;37.858;2022-12-19T00:08:57;100833.88;;;-10.77;96.12
34674;BME280;20879;55.668;37.858;2022-12-19T00:11:27;100833.53;;;-10.72;96.09
34674;BME280;20879;55.668;37.858;2022-12-19T00:13:57;100838.19;;;-10.66;96.24
34674;BME280;20879;55.668;37.858;2022-12-19T00:16:37;100832.44;;;-10.65;96.07
34674;BME280;20879;55.668;37.858;2022-12-19T00:19:09;100841.44;;;-10.67;95.67
34674;BME280;20879;55.668;37.858;2022-12-19T00:21:41;100824.44;;;-10.61;96.23
34674;BME280;20879;55.668;37.858;2022-12-19T00:24:11;100821.91;;;-10.71;95.83
34674;BME280;20879;55.668;37.858;2022-12-19T00:26:47;100855.09;;;-10.63;95.98
34674;BME280;20879;55.668;37.858;2022-12-19T00:29:17;100831.22;;;-10.60;96.22
34674;BME280;20879;55.668;37.858;2022-12-19T00:31:51;100839.00;;;-10.57;96.21
34674;BME280;20879;55.668;37.858;2022-12-19T00:34:21;100853.53;;;-10.52;95.98
34674;BME280;20879;55.668;37.858;2022-12-19T00:37:01;100815.84;;;-10.73;96.00
34674;BME280;20879;55.668;37.858;2022-12-19T00:39:43;100854.41;;;-10.52;96.30
34674;BME280;20879;55.668;37.858;2022-12-19T00:42:17;100848.66;;;-10.51;96.27
34674;BME280;20879;55.668;37.858;2022-12-19T00:44:47;100844.78;;;-10.47;96.25
34674;BME280;20879;55.668;37.858;2022-12-19T00:47:25;100848.28;;;-10.45;96.08
34674;BME280;20879;55.668;37.858;2022-12-19T00:49:54;100853.84;;;-10.39;96.22
34674;BME280;20879;55.668;37.858;2022-12-19T00:52:26;100868.53;;;-10.33;96.38
34674;BME280;20879;55.668;37.858;2022-12-19T00:54:56;100868.13;;;-10.28;96.56
34674;BME280;20879;55.668;37.858;2022-12-19T00:57:26;100861.91;;;-10.23;96.48
34674;BME280;20879;55.668;37.858;2022-12-19T01:00:02;100859.53;;;-10.21;96.39
34674;BME280;20879;55.668;37.858;2022-12-19T01:02:32;100852.53;;;-10.15;96.39
34674;BME280;20879;55.668;37.858;2022-12-19T01:05:01;100862.72;;;-10.03;96.80
34674;BME280;20879;55.668;37.858;2022-12-19T01:07:34;100859.00;;;-9.98;96.81
34674;BME280;20879;55.668;37.858;2022-12-19T01:10:09;100856.88;;;-9.93;96.84
34674;BME280;20879;55.668;37.858;2022-12-19T01:12:39;100854.00;;;-9.88;97.14
34674;BME280;20879;55.668;37.858;2022-12-19T01:15:13;100848.75;;;-9.80;96.82
34674;BME280;20879;55.668;37.858;2022-12-19T01:17:43;100850.78;;;-9.76;96.91
34674;BME280;20879;55.668;37.858;2022-12-19T01:20:14;100841.50;;;-9.77;97.21
34674;BME280;20879;55.668;37.858;2022-12-19T01:22:58;100843.78;;;-9.70;97.37
34674;BME280;20879;55.668;37.858;2022-12-19T01:25:27;100849.16;;;-9.66;96.99
34674;BME280;20879;55.668;37.858;2022-12-19T01:28:05;100814.06;;;-9.76;97.10
34674;BME280;20879;55.668;37.858;2022-12-19T01:30:39;100842.28;;;-9.58;97.40
34674;BME280;20879;55.668;37.858;2022-12-19T01:33:10;100854.56;;;-9.51;97.84
34674;BME280;20879;55.668;37.858;2022-12-19T01:35:41;100837.50;;;-9.55;97.68
34674;BME280;20879;55.668;37.858;2022-12-19T01:38:19;100816.34;;;-9.58;98.14
34674;BME280;20879;55.668;37.858;2022-12-19T01:40:50;100844.06;;;-9.36;98.15
34674;BME280;20879;55.668;37.858;2022-12-19T01:43:20;100838.91;;;-9.27;98.17
34674;BME280;20879;55.668;37.858;2022-12-19T01:45:53;100853.59;;;-9.22;98.31
34674;BME280;20879;55.668;37.858;2022-12-19T01:48:30;100854.84;;;-9.17;98.64
34674;BME280;20879;55.668;37.858;2022-12-19T01:51:04;100839.28;;;-9.13;98.30
34674;BME280;20879;55.668;37.858;2022-12-19T01:53:43;100841.78;;;-9.02;98.69
34674;BME280;20879;55.668;37.858;2022-12-19T01:56:19;100834.75;;;-8.96;98.54
34674;BME280;20879;55.668;37.858;2022-12-19T01:58:52;100842.78;;;-8.90;98.75
34674;BME280;20879;55.668;37.858;2022-12-19T02:01:41;100834.47;;;-8.89;98.90
34674;BME280;20879;55.668;37.858;2022-12-19T02:04:23;100844.03;;;-8.85;99.05
34674;BME280;20879;55.668;37.858;2022-12-19T02:07:01;100844.25;;;-8.82;98.98
34674;BME280;20879;55.668;37.858;2022-12-19T02:09:46;100826.94;;;-8.79;99.03
34674;BME280;20879;55.668;37.858;2022-12-19T02:12:36;100836.47;;;-8.74;99.47
34674;BME280;20879;55.668;37.858;2022-12-19T02:15:14;100850.66;;;-8.75;99.48
34674;BME280;20879;55.668;37.858;2022-12-19T02:17:58;100845.41;;;-8.78;99.06
34674;BME280;20879;55.668;37.858;2022-12-19T02:27:32;100850.78;;;-8.73;99.16
34674;BME280;20879;55.668;37.858;2022-12-19T02:30:12;100830.94;;;-8.70;99.08
34674;BME280;20879;55.668;37.858;2022-12-19T02:32:56;100830.94;;;-8.70;99.17
34674;BME280;20879;55.668;37.858;2022-12-19T02:35:40;100834.06;;;-8.63;99.58
34674;BME280;20879;55.668;37.858;2022-12-19T02:38:15;100821.84;;;-8.58;99.37
34674;BME280;20879;55.668;37.858;2022-12-19T02:40:53;100826.88;;;-8.58;99.73
34674;BME280;20879;55.668;37.858;2022-12-19T02:43:29;100812.78;;;-8.46;99.60
34674;BME280;20879;55.668;37.858;2022-12-19T02:45:59;100807.97;;;-8.43;99.37
34674;BME280;20879;55.668;37.858;2022-12-19T02:48:33;100586.19;;;-9.73;99.55
34674;BME280;20879;55.668;37.858;2022-12-19T02:51:04;100825.75;;;-8.29;100.00
34674;BME280;20879;55.668;37.858;2022-12-19T02:53:37;100819.34;;;-8.26;100.00
34674;BME280;20879;55.668;37.858;2022-12-19T02:56:38;100802.22;;;-8.19;99.92
34674;BME280;20879;55.668;37.858;2022-12-19T02:59:17;100794.50;;;-8.11;100.00
34674;BME280;20879;55.668;37.858;2022-12-19T03:01:56;100798.34;;;-8.04;100.00
34674;BME280;20879;55.668;37.858;2022-12-19T03:04:43;100797.19;;;-7.97;100.00
34674;BME280;20879;55.668;37.858;2022-12-19T03:07:20;100788.13;;;-7.95;100.00
34674;BME280;20879;55.668;37.858;2022-12-19T03:10:06;100784.97;;;-7.93;100.00
34674;BME280;20879;55.668;37.858;2022-12-19T03:12:45;100786.31;;;-7.86;100.00
34674;BME280;20879;55.668;37.858;2022-12-19T03:15:18;100782.28;;;-7.84;100.00
34674;BME280;20879;55.668;37.858;2022-12-19T03:17:48;100786.25;;;-7.76;100.00
34674;BME280;20879;55.668;37.858;2022-12-19T03:20:25;100781.56;;;-7.71;100.00
34674;BME280;20879;55.668;37.858;2022-12-19T03:22:56;100774.38;;;-7.66;100.00
34674;BME280;20879;55.668;37.858;2022-12-19T03:25:25;100769.44;;;-7.65;100.00
34674;BME280;20879;55.668;37.858;2022-12-19T03:27:56;100773.19;;;-7.60;100.00
34674;BME280;20879;55.668;37.858;2022-12-19T03:30:28;100766.72;;;-7.56;100.00
34674;BME280;20879;55.668;37.858;2022-12-19T03:32:59;100759.19;;;-7.56;100.00
34674;BME280;20879;55.668;37.858;2022-12-19T03:35:37;100757.53;;;-7.56;100.00
34674;BME280;20879;55.668;37.858;2022-12-19T03:38:14;100757.66;;;-7.54;100.00
34674;BME280;20879;55.668;37.858;2022-12-19T03:40:46;100758.78;;;-7.50;100.00
34674;BME280;20879;55.668;37.858;2022-12-19T03:43:22;100762.38;;;-7.47;100.00
34674;BME280;20879;55.668;37.858;2022-12-19T03:45:54;100713.66;;;-7.71;100.00
34674;BME280;20879;55.668;37.858;2022-12-19T03:48:33;100762.59;;;-7.44;100.00
34674;BME280;20879;55.668;37.858;2022-12-19T03:51:14;100761.41;;;-7.37;100.00
34674;BME280;20879;55.668;37.858;2022-12-19T03:53:52;100755.09;;;-7.32;100.00
34674;BME280;20879;55.668;37.858;2022-12-19T03:56:39;100755.97;;;-7.31;100.00
34674;BME280;20879;55.668;37.858;2022-12-19T03:59:15;100747.78;;;-7.29;100.00
34674;BME280;20879;55.668;37.858;2022-12-19T04:01:45;100750.19;;;-7.30;100.00
34674;BME280;20879;55.668;37.858;2022-12-19T04:04:21;100749.38;;;-7.29;100.00
34674;BME280;20879;55.668;37.858;2022-12-19T04:06:54;100749.38;;;-7.29;100.00
34674;BME280;20879;55.668;37.858;2022-12-19T04:09:25;100742.50;;;-7.32;100.00
34674;BME280;20879;55.668;37.858;2022-12-19T04:12:00;100721.69;;;-7.41;100.00
34674;BME280;20879;55.668;37.858;2022-12-19T04:14:36;100734.75;;;-7.23;100.00
34674;BME280;20879;55.668;37.858;2022-12-19T04:17:12;100740.88;;;-7.20;100.00
34674;BME280;20879;55.668;37.858;2022-12-19T04:19:48;100722.72;;;-7.15;100.00
34674;BME280;20879;55.668;37.858;2022-12-19T04:22:31;100706.28;;;-7.22;100.00
34674;BME280;20879;55.668;37.858;2022-12-19T04:25:04;100720.94;;;-7.16;100.00
34674;BME280;20879;55.668;37.858;2022-12-19T04:27:39;100729.38;;;-7.16;100.00
34674;BME280;20879;55.668;37.858;2022-12-19T04:30:12;100725.88;;;-7.18;100.00
34674;BME280;20879;55.668;37.858;2022-12-19T04:32:49;100729.25;;;-7.17;100.00
34674;BME280;20879;55.668;37.858;2022-12-19T04:35:19;100718.44;;;-7.16;100.00
34674;BME280;20879;55.668;37.858;2022-12-19T04:37:55;100721.38;;;-7.22;100.00
34674;BME280;20879;55.668;37.858;2022-12-19T04:40:24;100712.84;;;-7.36;100.00
34674;BME280;20879;55.668;37.858;2022-12-19T04:42:53;100710.84;;;-7.52;100.00
34674;BME280;20879;55.668;37.858;2022-12-19T04:45:33;100711.47;;;-7.66;100.00
34674;BME280;20879;55.668;37.858;2022-12-19T04:48:03;100713.84;;;-7.80;100.00
34674;BME280;20879;55.668;37.858;2022-12-19T04:50:40;100725.09;;;-7.86;100.00
34674;BME280;20879;55.668;37.858;2022-12-19T04:53:11;100734.50;;;-7.84;100.00
34674;BME280;20879;55.668;37.858;2022-12-19T04:55:40;100737.69;;;-7.75;100.00
34674;BME280;20879;55.668;37.858;2022-12-19T04:58:10;100711.22;;;-7.81;100.00
34674;BME280;20879;55.668;37.858;2022-12-19T05:00:52;100738.41;;;-7.65;100.00
34674;BME280;20879;55.668;37.858;2022-12-19T05:03:21;100735.69;;;-7.57;100.00
34674;BME280;20879;55.668;37.858;2022-12-19T05:05:51;100736.03;;;-7.52;100.00
34674;BME280;20879;55.668;37.858;2022-12-19T05:08:22;100741.16;;;-7.50;100.00
34674;BME280;20879;55.668;37.858;2022-12-19T05:10:51;100730.44;;;-7.48;100.00
34674;BME280;20879;55.668;37.858;2022-12-19T05:13:20;100704.06;;;-7.53;100.00
34674;BME280;20879;55.668;37.858;2022-12-19T05:15:55;100720.47;;;-7.58;100.00
34674;BME280;20879;55.668;37.858;2022-12-19T05:18:29;100738.22;;;-7.45;100.00
34674;BME280;20879;55.668;37.858;2022-12-19T05:20:58;100750.91;;;-7.43;100.00
34674;BME280;20879;55.668;37.858;2022-12-19T05:23:30;100741.72;;;-7.43;100.00
34674;BME280;20879;55.668;37.858;2022-12-19T05:26:05;100732.06;;;-7.48;100.00
34674;BME280;20879;55.668;37.858;2022-12-19T05:28:35;100739.94;;;-7.44;100.00
34674;BME280;20879;55.668;37.858;2022-12-19T05:31:07;100717.28;;;-7.56;100.00
34674;BME280;20879;55.668;37.858;2022-12-19T05:33:42;100732.66;;;-7.41;100.00
34674;BME280;20879;55.668;37.858;2022-12-19T05:36:17;100732.09;;;-7.37;100.00
34674;BME280;20879;55.668;37.858;2022-12-19T05:38:48;100740.75;;;-7.33;100.00
34674;BME280;20879;55.668;37.858;2022-12-19T05:41:19;100735.06;;;-7.30;100.00
34674;BME280;20879;55.668;37.858;2022-12-19T05:43:54;100741.72;;;-7.31;100.00
34674;BME280;20879;55.668;37.858;2022-12-19T05:46:24;100722.50;;;-7.30;100.00
34674;BME280;20879;55.668;37.858;2022-12-19T05:48:54;100718.97;;;-7.32;100.00
34674;BME280;20879;55.668;37.858;2022-12-19T05:51:24;100717.69;;;-7.27;100.00
34674;BME280;20879;55.668;37.858;2022-12-19T05:53:55;100710.22;;;-7.26;100.00
34674;BME280;20879;55.668;37.858;2022-12-19T05:56:24;100721.38;;;-7.22;100.00
34674;BME280;20879;55.668;37.858;2022-12-19T05:58:58;100703.34;;;-7.28;100.00
34674;BME280;20879;55.668;37.858;2022-12-19T06:01:28;100721.97;;;-7.14;100.00
34674;BME280;20879;55.668;37.858;2022-12-19T06:04:03;100722.94;;;-7.12;100.00
34674;BME280;20879;55.668;37.858;2022-12-19T06:06:33;100714.50;;;-7.13;100.00
34674;BME280;20879;55.668;37.858;2022-12-19T06:09:15;100707.72;;;-7.14;100.00
34674;BME280;20879;55.668;37.858;2022-12-19T06:11:44;100704.66;;;-7.10;100.00
34674;BME280;20879;55.668;37.858;2022-12-19T06:14:13;100711.66;;;-7.06;100.00
34674;BME280;20879;55.668;37.858;2022-12-19T06:16:42;100691.53;;;-7.06;100.00
34674;BME280;20879;55.668;37.858;2022-12-19T06:19:18;100691.84;;;-7.01;100.00
34674;BME280;20879;55.668;37.858;2022-12-19T06:21:47;100708.78;;;-6.98;100.00
34674;BME280;20879;55.668;37.858;2022-12-19T06:24:25;100706.53;;;-6.95;100.00
34674;BME280;20879;55.668;37.858;2022-12-19T06:27:05;100713.06;;;-6.86;100.00
34674;BME280;20879;55.668;37.858;2022-12-19T06:29:34;100724.03;;;-6.85;100.00
34674;BME280;20879;55.668;37.858;2022-12-19T06:32:03;100722.28;;;-6.86;100.00
34674;BME280;20879;55.668;37.858;2022-12-19T06:34:34;100729.28;;;-6.82;100.00
34674;BME280;20879;55.668;37.858;2022-12-19T06:37:34;100722.03;;;-6.77;100.00
34674;BME280;20879;55.668;37.858;2022-12-19T06:40:09;100745.03;;;-6.73;100.00
34674;BME280;20879;55.668;37.858;2022-12-19T06:42:59;100735.06;;;-6.71;100.00
34674;BME280;20879;55.668;37.858;2022-12-19T06:45:26;100740.19;;;-6.70;100.00
34674;BME280;20879;55.668;37.858;2022-12-19T06:47:56;100739.44;;;-6.69;100.00
34674;BME280;20879;55.668;37.858;2022-12-19T06:50:31;100736.38;;;-6.64;100.00
34674;BME280;20879;55.668;37.858;2022-12-19T06:53:01;100721.91;;;-6.67;100.00
34674;BME280;20879;55.668;37.858;2022-12-19T06:55:34;100736.03;;;-6.57;100.00
34674;BME280;20879;55.668;37.858;2022-12-19T06:58:09;100727.91;;;-6.53;100.00
34674;BME280;20879;55.668;37.858;2022-12-19T07:00:38;100730.28;;;-6.43;100.00
34674;BME280;20879;55.668;37.858;2022-12-19T07:03:16;100713.47;;;-6.56;100.00
34674;BME280;20879;55.668;37.858;2022-12-19T07:05:46;100728.00;;;-6.40;100.00
34674;BME280;20879;55.668;37.858;2022-12-19T07:08:16;100732.91;;;-6.29;100.00
34674;BME280;20879;55.668;37.858;2022-12-19T07:10:47;100734.75;;;-6.27;100.00
34674;BME280;20879;55.668;37.858;2022-12-19T07:13:17;100721.28;;;-6.27;100.00
34674;BME280;20879;55.668;37.858;2022-12-19T07:15:47;100725.41;;;-6.16;100.00
34674;BME280;20879;55.668;37.858;2022-12-19T07:18:21;100709.84;;;-6.22;100.00
34674;BME280;20879;55.668;37.858;2022-12-19T07:20:51;100727.22;;;-6.02;100.00
34674;BME280;20879;55.668;37.858;2022-12-19T07:23:21;100713.22;;;-5.97;100.00
34674;BME280;20879;55.668;37.858;2022-12-19T07:25:53;100700.47;;;-5.86;100.00
34674;BME280;20879;55.668;37.858;2022-12-19T07:28:23;100710.94;;;-5.80;100.00
34674;BME280;20879;55.668;37.858;2022-12-19T07:30:52;100697.56;;;-5.79;100.00
34674;BME280;20879;55.668;37.858;2022-12-19T07:33:26;100715.63;;;-5.73;100.00
34674;BME280;20879;55.668;37.858;2022-12-19T07:35:55;100682.44;;;-5.79;100.00
34674;BME280;20879;55.668;37.858;2022-12-19T07:38:25;100702.44;;;-5.69;100.00
34674;BME280;20879;55.668;37.858;2022-12-19T07:41:03;100715.16;;;-5.67;100.00
34674;BME280;20879;55.668;37.858;2022-12-19T07:43:32;100695.06;;;-5.66;100.00
34674;BME280;20879;55.668;37.858;2022-12-19T07:46:06;100718.88;;;-5.62;100.00
34674;BME280;20879;55.668;37.858;2022-12-19T07:48:35;100703.41;;;-5.67;100.00
34674;BME280;20879;55.668;37.858;2022-12-19T07:51:10;100724.22;;;-5.57;100.00
34674;BME280;20879;55.668;37.858;2022-12-19T07:53:39;100706.00;;;-5.53;100.00
34674;BME280;20879;55.668;37.858;2022-12-19T07:56:10;100730.31;;;-5.54;100.00
34674;BME280;20879;55.668;37.858;2022-12-19T07:58:39;100722.19;;;-5.50;100.00
34674;BME280;20879;55.668;37.858;2022-12-19T08:01:15;100729.06;;;-5.60;100.00
34674;BME280;20879;55.668;37.858;2022-12-19T08:03:44;100723.25;;;-5.46;100.00
34674;BME280;20879;55.668;37.858;2022-12-19T08:06:13;100729.66;;;-5.51;100.00
34674;BME280;20879;55.668;37.858;2022-12-19T08:08:43;100721.53;;;-5.47;100.00
34674;BME280;20879;55.668;37.858;2022-12-19T08:11:16;100726.75;;;-5.44;100.00
34674;BME280;20879;55.668;37.858;2022-12-19T08:13:48;100702.19;;;-5.47;100.00
34674;BME280;20879;55.668;37.858;2022-12-19T08:16:18;100711.81;;;-5.41;100.00
34674;BME280;20879;55.668;37.858;2022-12-19T08:18:47;100705.44;;;-5.36;100.00
34674;BME280;20879;55.668;37.858;2022-12-19T08:21:22;100715.91;;;-5.30;100.00
34674;BME280;20879;55.668;37.858;2022-12-19T08:23:52;100709.31;;;-5.28;100.00
34674;BME280;20879;55.668;37.858;2022-12-19T08:26:23;100720.97;;;-5.30;100.00
34674;BME280;20879;55.668;37.858;2022-12-19T08:28:58;100716.78;;;-5.29;100.00
34674;BME280;20879;55.668;37.858;2022-12-19T08:31:32;100711.53;;;-5.32;100.00
34674;BME280;20879;55.668;37.858;2022-12-19T08:34:02;100716.00;;;-5.28;100.00
34674;BME280;20879;55.668;37.858;2022-12-19T08:36:31;100699.88;;;-5.30;100.00
34674;BME280;20879;55.668;37.858;2022-12-19T08:39:00;100695.91;;;-5.27;100.00
34674;BME280;20879;55.668;37.858;2022-12-19T08:41:31;100713.41;;;-5.16;100.00
34674;BME280;20879;55.668;37.858;2022-12-19T08:44:01;100710.41;;;-5.11;100.00
34674;BME280;20879;55.668;37.858;2022-12-19T08:46:30;100689.91;;;-5.15;100.00
34674;BME280;20879;55.668;37.858;2022-12-19T08:48:59;100693.75;;;-5.07;100.00
34674;BME280;20879;55.668;37.858;2022-12-19T08:51:28;100693.09;;;-5.04;100.00
34674;BME280;20879;55.668;37.858;2022-12-19T08:53:59;100691.03;;;-4.97;100.00
34674;BME280;20879;55.668;37.858;2022-12-19T08:56:35;100697.66;;;-4.85;100.00
34674;BME280;20879;55.668;37.858;2022-12-19T08:59:16;100693.75;;;-4.80;100.00
34674;BME280;20879;55.668;37.858;2022-12-19T09:01:58;100692.28;;;-4.77;100.00
34674;BME280;20879;55.668;37.858;2022-12-19T09:04:32;100687.91;;;-4.79;100.00
34674;BME280;20879;55.668;37.858;2022-12-19T09:07:22;100688.19;;;-4.75;100.00
34674;BME280;20879;55.668;37.858;2022-12-19T09:09:51;100687.53;;;-4.72;100.00
34674;BME280;20879;55.668;37.858;2022-12-19T09:12:22;100694.25;;;-4.72;100.00
34674;BME280;20879;55.668;37.858;2022-12-19T09:14:52;100711.13;;;-4.71;100.00
34674;BME280;20879;55.668;37.858;2022-12-19T09:17:21;100695.19;;;-4.70;100.00
34674;BME280;20879;55.668;37.858;2022-12-19T09:19:50;100702.88;;;-4.69;100.00
34674;BME280;20879;55.668;37.858;2022-12-19T09:22:20;100682.84;;;-4.66;100.00
34674;BME280;20879;55.668;37.858;2022-12-19T09:24:55;100691.41;;;-4.64;100.00
34674;BME280;20879;55.668;37.858;2022-12-19T09:27:26;100692.09;;;-4.66;100.00
34674;BME280;20879;55.668;37.858;2022-12-19T09:29:55;100690.22;;;-4.69;100.00
34674;BME280;20879;55.668;37.858;2022-12-19T09:32:26;100686.66;;;-4.72;100.00
34674;BME280;20879;55.668;37.858;2022-12-19T09:34:55;100673.53;;;-4.80;100.00
34674;BME280;20879;55.668;37.858;2022-12-19T09:37:25;100690.13;;;-4.70;100.00
34674;BME280;20879;55.668;37.858;2022-12-19T09:39:54;100692.00;;;-4.68;100.00
34674;BME280;20879;55.668;37.858;2022-12-19T09:42:47;100685.44;;;-4.64;100.00
34674;BME280;20879;55.668;37.858;2022-12-19T09:45:38;100672.34;;;-4.72;100.00
34674;BME280;20879;55.668;37.858;2022-12-19T09:48:11;100679.53;;;-4.65;100.00
34674;BME280;20879;55.668;37.858;2022-12-19T09:50:55;100682.25;;;-4.62;100.00
34674;BME280;20879;55.668;37.858;2022-12-19T09:53:43;100682.53;;;-4.57;100.00
34674;BME280;20879;55.668;37.858;2022-12-19T09:56:21;100680.88;;;-4.57;100.00
34674;BME280;20879;55.668;37.858;2022-12-19T09:58:57;100689.53;;;-4.53;100.00
34674;BME280;20879;55.668;37.858;2022-12-19T10:01:31;100683.97;;;-4.47;100.00
34674;BME280;20879;55.668;37.858;2022-12-19T10:04:08;100685.00;;;-4.44;100.00
34674;BME280;20879;55.668;37.858;2022-12-19T10:06:39;100673.34;;;-4.42;100.00
34674;BME280;20879;55.668;37.858;2022-12-19T10:09:31;100681.03;;;-4.40;100.00
34674;BME280;20879;55.668;37.858;2022-12-19T10:12:20;100681.03;;;-4.40;100.00
34674;BME280;20879;55.668;37.858;2022-12-19T10:15:24;100683.75;;;-4.37;100.00
34674;BME280;20879;55.668;37.858;2022-12-19T10:18:11;100690.38;;;-4.39;100.00
34674;BME280;20879;55.668;37.858;2022-12-19T10:20:46;100677.56;;;-4.42;100.00
34674;BME280;20879;55.668;37.858;2022-12-19T10:23:39;100683.66;;;-4.39;100.00
34674;BME280;20879;55.668;37.858;2022-12-19T10:26:20;100658.50;;;-4.50;100.00
34674;BME280;20879;55.668;37.858;2022-12-19T10:29:17;100682.97;;;-4.36;100.00
34674;BME280;20879;55.668;37.858;2022-12-19T10:31:57;100684.00;;;-4.32;100.00
34674;BME280;20879;55.668;37.858;2022-12-19T10:34:34;100666.53;;;-4.43;100.00
34674;BME280;20879;55.668;37.858;2022-12-19T10:37:13;100668.34;;;-4.27;100.00
34674;BME280;20879;55.668;37.858;2022-12-19T10:40:10;100678.47;;;-4.27;100.00
34674;BME280;20879;55.668;37.858;2022-12-19T10:42:56;100682.38;;;-4.32;100.00
34674;BME280;20879;55.668;37.858;2022-12-19T10:45:41;100684.69;;;-4.35;100.00
34674;BME280;20879;55.668;37.858;2022-12-19T10:48:18;100684.09;;;-4.31;100.00
34674;BME280;20879;55.668;37.858;2022-12-19T10:51:11;100680.22;;;-4.26;100.00
34674;BME280;20879;55.668;37.858;2022-12-19T10:53:52;100674.47;;;-4.23;100.00
34674;BME280;20879;55.668;37.858;2022-12-19T10:56:23;100650.47;;;-4.30;100.00
34674;BME280;20879;55.668;37.858;2022-12-19T10:58:59;100662.59;;;-4.24;100.00
34674;BME280;20879;55.668;37.858;2022-12-19T11:01:38;100680.47;;;-4.21;100.00
34674;BME280;20879;55.668;37.858;2022-12-19T11:04:20;100673.75;;;-4.21;100.00
34674;BME280;20879;55.668;37.858;2022-12-19T11:07:08;100675.16;;;-4.26;100.00
34674;BME280;20879;55.668;37.858;2022-12-19T11:09:45;100687.22;;;-4.22;100.00
34674;BME280;20879;55.668;37.858;2022-12-19T11:12:35;100684.69;;;-4.22;100.00
34674;BME280;20879;55.668;37.858;2022-12-19T11:15:24;100642.53;;;-4.21;100.00
34674;BME280;20879;55.668;37.858;2022-12-19T11:18:13;100685.44;;;-4.23;100.00
34674;BME280;20879;55.668;37.858;2022-12-19T11:21:12;100686.63;;;-4.31;100.00
34674;BME280;20879;55.668;37.858;2022-12-19T11:24:04;100679.22;;;-4.28;100.00
34674;BME280;20879;55.668;37.858;2022-12-19T11:26:54;100688.56;;;-4.27;100.00
34674;BME280;20879;55.668;37.858;2022-12-19T11:29:45;100705.50;;;-4.26;100.00
34674;BME280;20879;55.668;37.858;2022-12-19T11:32:37;100686.81;;;-4.28;100.00
34674;BME280;20879;55.668;37.858;2022-12-19T11:35:17;100689.44;;;-4.26;100.00
34674;BME280;20879;55.668;37.858;2022-12-19T11:37:55;100686.41;;;-4.21;100.00
34674;BME280;20879;55.668;37.858;2022-12-19T11:40:31;100650.22;;;-4.19;99.94
34674;BME280;20879;55.668;37.858;2022-12-19T11:43:06;100696.59;;;-4.19;98.99
34674;BME280;20879;55.668;37.858;2022-12-19T11:46:01;100693.13;;;-4.21;98.56
34674;BME280;20879;55.668;37.858;2022-12-19T11:48:37;100692.06;;;-4.25;99.11
34674;BME280;20879;55.668;37.858;2022-12-19T11:51:18;100696.94;;;-4.28;99.29
34674;BME280;20879;55.668;37.858;2022-12-19T11:53:57;100700.44;;;-4.26;99.79
34674;BME280;20879;55.668;37.858;2022-12-19T11:56:28;100688.13;;;-4.34;99.87
34674;BME280;20879;55.668;37.858;2022-12-19T11:58:59;100707.13;;;-4.26;100.00
34674;BME280;20879;55.668;37.858;2022-12-19T12:01:41;100704.69;;;-4.25;100.00
34674;BME280;20879;55.668;37.858;2022-12-19T12:07:13;100684.69;;;-4.35;100.00
34674;BME280;20879;55.668;37.858;2022-12-19T12:10:13;100711.69;;;-4.21;100.00
34674;BME280;20879;55.668;37.858;2022-12-19T12:13:11;100690.41;;;-4.24;100.00
34674;BME280;20879;55.668;37.858;2022-12-19T12:16:09;100718.88;;;-4.13;100.00
34674;BME280;20879;55.668;37.858;2022-12-19T12:19:16;100730.75;;;-4.12;100.00
34674;BME280;20879;55.668;37.858;2022-12-19T12:22:17;100698.91;;;-4.09;100.00
34674;BME280;20879;55.668;37.858;2022-12-19T12:25:29;100714.00;;;-4.10;100.00
34674;BME280;20879;55.668;37.858;2022-12-19T12:28:40;100707.38;;;-4.08;100.00
34674;BME280;20879;55.668;37.858;2022-12-19T12:31:40;100721.41;;;-4.13;99.87
34674;BME280;20879;55.668;37.858;2022-12-19T12:34:54;100715.16;;;-4.05;100.00
34674;BME280;20879;55.668;37.858;2022-12-19T12:37:53;100738.34;;;-4.12;100.00
34674;BME280;20879;55.668;37.858;2022-12-19T12:41:07;100730.34;;;-4.05;100.00
34674;BME280;20879;55.668;37.858;2022-12-19T12:43:48;100718.63;;;-4.03;100.00
34674;BME280;20879;55.668;37.858;2022-12-19T12:46:25;100710.47;;;-4.27;100.00
34674;BME280;20879;55.668;37.858;2022-12-19T12:54:44;100730.94;;;-4.51;98.98
34674;BME280;20879;55.668;37.858;2022-12-19T12:57:34;100763.97;;;-4.34;99.76
34674;BME280;20879;55.668;37.858;2022-12-19T13:00:24;100773.09;;;-4.23;100.00
34674;BME280;20879;55.668;37.858;2022-12-19T13:03:04;100775.09;;;-4.17;100.00
34674;BME280;20879;55.668;37.858;2022-12-19T13:05:52;100766.84;;;-4.15;100.00
34674;BME280;20879;55.668;37.858;2022-12-19T13:08:35;100782.69;;;-4.04;100.00
34674;BME280;20879;55.668;37.858;2022-12-19T13:11:32;100756.75;;;-4.00;100.00
34674;BME280;20879;55.668;37.858;2022-12-19T13:14:43;100776.22;;;-3.99;99.80
34674;BME280;20879;55.668;37.858;2022-12-19T13:17:23;100744.53;;;-4.07;99.93
34674;BME280;20879;55.668;37.858;2022-12-19T13:19:54;100774.66;;;-3.97;100.00
34674;BME280;20879;55.668;37.858;2022-12-19T13:22:37;100772.94;;;-3.98;99.77
34674;BME280;20879;55.668;37.858;2022-12-19T13:28:36;100790.06;;;-3.94;100.00
34674;BME280;20879;55.668;37.858;2022-12-19T13:31:28;100781.47;;;-3.96;100.00
34674;BME280;20879;55.668;37.858;2022-12-19T13:34:16;100792.66;;;-3.92;100.00
34674;BME280;20879;55.668;37.858;2022-12-19T13:36:50;100762.41;;;-3.91;99.82
34674;BME280;20879;55.668;37.858;2022-12-19T13:39:41;100790.41;;;-3.88;100.00
34674;BME280;20879;55.668;37.858;2022-12-19T13:42:35;100795.75;;;-3.83;99.95